Time;durP1;ratioP1;P1;durP2;ratioP2;P2;SDS_P1;SDS_P2;PMS_P1;PMS_P2;Temp;Humidity;BMP_temperature;BMP_pressure;BME280_temperature;BME280_humidity;BME280_pressure;Samples;Min_cycle;Max_cycle;Signal;HPM_P1;HPM_P2
2022/09/14 00:02:18;;;;;;;18.10;2.80;;;14.30;86.20;;;;;;5115094;28;20238;-86
2022/09/14 00:04:44;;;;;;;13.43;2.43;;;14.20;86.10;;;;;;5115242;28;20182;-86
2022/09/14 00:07:09;;;;;;;14.77;2.90;;;14.20;85.90;;;;;;5116849;28;20216;-85
2022/09/14 00:09:35;;;;;;;10.15;3.05;;;14.20;85.90;;;;;;5116511;28;20198;-86
2022/09/14 00:12:01;;;;;;;9.57;2.00;;;14.30;85.90;;;;;;5116296;28;20182;-85
2022/09/14 00:14:26;;;;;;;10.33;2.97;;;14.20;85.70;;;;;;5115176;28;20210;-86
2022/09/14 00:16:52;;;;;;;14.87;2.53;;;14.20;85.50;;;;;;5116229;28;20276;-86
2022/09/14 00:19:23;;;;;;;12.17;2.00;;;14.00;85.40;;;;;;5116544;28;20180;-86
2022/09/14 00:21:54;;;;;;;12.83;2.23;;;14.00;85.60;;;;;;5115086;28;20181;-86
2022/09/14 00:24:20;;;;;;;14.80;2.20;;;14.00;85.80;;;;;;5116459;28;20223;-85
2022/09/14 00:26:46;;;;;;;8.90;1.90;;;13.90;85.70;;;;;;5116120;28;20216;-86
2022/09/14 00:29:12;;;;;;;10.83;2.33;;;13.90;85.60;;;;;;5116207;28;20174;-85
2022/09/14 00:31:38;;;;;;;13.10;2.33;;;13.80;85.80;;;;;;5116349;28;20655;-86
2022/09/14 00:34:05;;;;;;;11.50;2.07;;;13.70;86.10;;;;;;5114762;28;20686;-85
2022/09/14 00:36:32;;;;;;;11.07;2.37;;;13.70;86.20;;;;;;5114589;28;20202;-86
2022/09/14 00:38:59;;;;;;;10.90;2.40;;;13.60;86.70;;;;;;5116157;27;20548;-85
2022/09/14 00:41:28;;;;;;;16.23;3.20;;;13.70;86.90;;;;;;5114636;28;20184;-86
2022/09/14 00:44:00;;;;;;;9.57;2.93;;;13.70;86.60;;;;;;5114481;28;20197;-86
2022/09/14 00:46:31;;;;;;;10.20;2.70;;;13.50;86.80;;;;;;5114411;28;20205;-86
2022/09/14 00:49:00;;;;;;;14.27;2.77;;;13.50;87.30;;;;;;5115976;28;20158;-85
2022/09/14 00:51:28;;;;;;;14.43;2.20;;;13.50;87.20;;;;;;5115705;28;20644;-85
2022/09/14 00:53:54;;;;;;;13.20;2.63;;;13.50;87.20;;;;;;5114377;28;20174;-86
2022/09/14 00:56:20;;;;;;;16.90;2.40;;;13.40;86.90;;;;;;5114348;28;20198;-86
2022/09/14 00:58:49;;;;;;;10.83;2.20;;;13.30;87.10;;;;;;5115586;28;20182;-85
2022/09/14 01:01:15;;;;;;;11.67;2.67;;;13.30;87.20;;;;;;5115405;28;20598;-86
2022/09/14 01:03:41;;;;;;;12.60;1.97;;;13.20;87.20;;;;;;5114222;28;20211;-85
2022/09/14 01:06:35;;;;;;;13.57;2.87;;;13.20;87.30;;;;;;5114175;28;20239;-85
2022/09/14 01:09:20;;;;;;;11.47;2.10;;;13.20;87.60;;;;;;5114135;28;20166;-86
2022/09/14 01:12:12;;;;;;;17.67;2.33;;;13.20;87.50;;;;;;5115391;28;20524;-86
2022/09/14 01:15:00;;;;;;;12.30;2.57;;;13.10;87.70;;;;;;5114005;28;20681;-85
2022/09/14 01:17:46;;;;;;;11.30;2.40;;;13.10;88.10;;;;;;5115600;28;20194;-88
2022/09/14 01:20:24;;;;;;;15.20;2.83;;;13.00;88.20;;;;;;5114157;28;20657;-86
2022/09/14 01:23:12;;;;;;;11.00;2.93;;;13.00;88.20;;;;;;5113705;28;20166;-86
2022/09/14 01:25:37;;;;;;;9.97;2.20;;;12.90;88.40;;;;;;5113219;28;20714;-85
2022/09/14 01:28:11;;;;;;;10.87;2.40;;;12.90;88.40;;;;;;5113738;28;20265;-86
2022/09/14 01:30:40;;;;;;;14.73;4.00;;;12.80;88.50;;;;;;5113712;28;20253;-86
2022/09/14 01:33:16;;;;;;;10.90;2.40;;;12.80;88.60;;;;;;5113623;28;20173;-85
2022/09/14 01:35:54;;;;;;;8.17;2.17;;;12.70;88.60;;;;;;5114805;28;20253;-86
2022/09/14 01:38:30;;;;;;;12.30;2.47;;;12.70;88.70;;;;;;5113595;28;20162;-85
2022/09/14 01:40:58;;;;;;;15.33;2.70;;;12.80;88.80;;;;;;5113550;28;20693;-86
2022/09/14 01:43:37;;;;;;;13.23;2.83;;;12.90;88.90;;;;;;5114795;28;20273;-85
2022/09/14 01:46:07;;;;;;;15.53;2.77;;;13.00;89.10;;;;;;5114705;28;20221;-85
2022/09/14 01:48:38;;;;;;;11.13;3.07;;;13.00;89.40;;;;;;5115056;27;20239;-85
2022/09/14 01:51:16;;;;;;;9.97;2.93;;;13.00;89.30;;;;;;5114562;28;20158;-87
2022/09/14 01:53:47;;;;;;;10.17;2.83;;;13.00;89.40;;;;;;5114709;28;20195;-85
2022/09/14 01:56:20;;;;;;;14.87;2.60;;;13.00;89.20;;;;;;5114384;28;20618;-85
2022/09/14 01:59:16;;;;;;;17.63;3.33;;;12.90;89.10;;;;;;5113119;28;20198;-85
2022/09/14 02:02:00;;;;;;;11.53;2.80;;;12.90;88.80;;;;;;5112936;28;20209;-85
2022/09/14 02:04:57;;;;;;;9.63;3.00;;;12.90;88.80;;;;;;5113881;28;20268;-87
2022/09/14 02:07:23;;;;;;;9.80;2.63;;;12.80;89.00;;;;;;5087895;28;20292;-85
2022/09/14 02:09:52;;;;;;;12.03;2.60;;;12.80;89.00;;;;;;5114434;28;20636;-85
2022/09/14 02:12:18;;;;;;;12.17;2.70;;;12.80;88.90;;;;;;5112899;28;20174;-85
2022/09/14 02:14:45;;;;;;;13.03;2.50;;;12.70;88.90;;;;;;5114170;28;20174;-86
2022/09/14 02:17:12;;;;;;;8.77;2.23;;;12.60;89.00;;;;;;5112828;28;20209;-86
2022/09/14 02:19:47;;;;;;;14.37;3.17;;;12.50;88.90;;;;;;5114005;28;20174;-86
2022/09/14 02:22:13;;;;;;;17.97;2.73;;;12.50;89.20;;;;;;5112888;28;20166;-86
2022/09/14 02:24:39;;;;;;;7.67;2.40;;;12.50;89.20;;;;;;5114128;28;20177;-85
2022/09/14 02:27:06;;;;;;;13.50;2.60;;;12.50;89.10;;;;;;5113799;28;20702;-85
2022/09/14 02:29:32;;;;;;;14.07;3.70;;;12.60;89.40;;;;;;5112778;28;20227;-86
2022/09/14 02:32:25;;;;;;;14.37;3.27;;;12.60;89.40;;;;;;5112703;28;20182;-86
2022/09/14 02:35:09;;;;;;;12.53;2.80;;;12.60;89.30;;;;;;5112390;28;20162;-86
2022/09/14 02:38:12;;;;;;;10.13;2.90;;;12.70;89.40;;;;;;5112310;28;20193;-86
2022/09/14 02:40:50;;;;;;;11.07;2.73;;;12.60;89.50;;;;;;5114184;28;20161;-86
2022/09/14 02:43:30;;;;;;;14.40;2.93;;;12.70;89.50;;;;;;5112535;28;20162;-86
2022/09/14 02:45:59;;;;;;;12.00;2.63;;;12.70;89.30;;;;;;5113769;28;20294;-86
2022/09/14 02:48:47;;;;;;;14.23;2.60;;;12.70;89.40;;;;;;5113893;28;20158;-86
2022/09/14 02:51:30;;;;;;;9.87;3.30;;;12.70;89.40;;;;;;5113637;28;20162;-86
2022/09/14 02:54:05;;;;;;;15.13;2.60;;;12.80;89.40;;;;;;5112463;28;20538;-86
2022/09/14 02:56:32;;;;;;;12.23;2.50;;;12.80;89.30;;;;;;5112363;28;20189;-86
2022/09/14 02:58:57;;;;;;;10.83;2.60;;;12.70;89.20;;;;;;5112383;28;20644;-86
2022/09/14 03:01:24;;;;;;;15.43;2.87;;;12.70;89.20;;;;;;5113689;28;20186;-85
2022/09/14 03:03:49;;;;;;;11.67;3.00;;;12.70;89.20;;;;;;5112363;28;20174;-85
2022/09/14 03:06:15;;;;;;;15.57;3.23;;;12.70;89.20;;;;;;5112128;28;20205;-86
2022/09/14 03:08:41;;;;;;;10.57;2.20;;;12.70;89.20;;;;;;5113467;28;20201;-86
2022/09/14 03:11:07;;;;;;;11.27;3.03;;;12.60;89.10;;;;;;5112290;28;20170;-86
2022/09/14 03:13:34;;;;;;;9.97;2.43;;;12.60;89.20;;;;;;5112387;28;20177;-86
2022/09/14 03:16:12;;;;;;;13.03;2.93;;;12.70;89.30;;;;;;5112400;28;20204;-86
2022/09/14 03:18:37;;;;;;;9.77;2.40;;;12.70;89.20;;;;;;5112230;28;20627;-86
2022/09/14 03:21:05;;;;;;;17.27;3.60;;;12.70;89.10;;;;;;5112072;28;20189;-86
2022/09/14 03:23:34;;;;;;;13.47;3.60;;;12.60;89.00;;;;;;5112058;28;20178;-85
2022/09/14 03:26:00;;;;;;;13.60;3.30;;;12.70;89.30;;;;;;5111907;28;20262;-86
2022/09/14 03:28:25;;;;;;;14.70;2.83;;;12.70;89.30;;;;;;5113653;28;20174;-86
2022/09/14 03:30:51;;;;;;;10.47;2.87;;;12.60;89.30;;;;;;5112050;28;20315;-86
2022/09/14 03:33:17;;;;;;;8.17;2.40;;;12.60;89.20;;;;;;5113531;28;20173;-86
2022/09/14 03:35:42;;;;;;;12.77;2.70;;;12.60;89.20;;;;;;5111966;28;20189;-86
2022/09/14 03:38:08;;;;;;;6.40;2.43;;;12.60;89.10;;;;;;5113523;28;20181;-86
2022/09/14 03:40:33;;;;;;;9.17;3.00;;;12.50;88.90;;;;;;5112590;28;20651;-87
2022/09/14 03:42:59;;;;;;;10.20;2.83;;;12.60;89.20;;;;;;5113910;28;20177;-87
2022/09/14 03:45:24;;;;;;;12.20;3.57;;;12.70;89.50;;;;;;5112407;28;20212;-87
2022/09/14 03:47:50;;;;;;;14.83;3.53;;;12.60;89.80;;;;;;5114174;28;20198;-87
2022/09/14 03:50:17;;;;;;;9.03;2.83;;;12.60;90.10;;;;;;5117657;28;20230;-87
2022/09/14 03:52:42;;;;;;;9.37;3.20;;;12.60;90.30;;;;;;5116105;28;20216;-87
2022/09/14 03:55:09;;;;;;;17.10;3.60;;;12.60;90.40;;;;;;5117498;28;20575;-87
2022/09/14 03:57:36;;;;;;;13.67;2.80;;;12.60;90.60;;;;;;5115906;28;20576;-87
2022/09/14 04:00:03;;;;;;;11.97;2.77;;;12.70;90.80;;;;;;5117259;27;20174;-87
2022/09/14 04:02:29;;;;;;;10.53;3.07;;;12.70;90.90;;;;;;5117393;28;20645;-87
2022/09/14 04:04:55;;;;;;;12.33;3.20;;;12.80;91.00;;;;;;5115760;28;20190;-87
2022/09/14 04:07:20;;;;;;;8.50;2.97;;;12.80;91.20;;;;;;5116930;28;20194;-87
2022/09/14 04:09:46;;;;;;;10.13;3.70;;;12.90;91.30;;;;;;5116852;28;20170;-87
2022/09/14 04:12:11;;;;;;;12.23;3.27;;;12.90;91.40;;;;;;5115730;28;20178;-88
2022/09/14 04:14:37;;;;;;;17.20;3.40;;;13.00;91.40;;;;;;5116505;28;20170;-87
2022/09/14 04:17:03;;;;;;;19.93;3.40;;;13.00;91.40;;;;;;5115680;28;20204;-87
2022/09/14 04:19:29;;;;;;;11.37;2.90;;;13.00;91.30;;;;;;5115466;28;20213;-87
2022/09/14 04:21:55;;;;;;;13.63;3.43;;;13.10;91.30;;;;;;5115613;28;20196;-88
2022/09/14 04:24:21;;;;;;;16.53;3.57;;;13.10;91.20;;;;;;5115520;28;20650;-87
2022/09/14 04:26:46;;;;;;;14.33;3.53;;;13.20;91.10;;;;;;5115898;28;20210;-87
2022/09/14 04:29:13;;;;;;;10.27;3.30;;;13.30;91.10;;;;;;5116674;28;20162;-87
2022/09/14 04:31:38;;;;;;;11.57;2.63;;;13.30;91.10;;;;;;5116567;28;20165;-87
2022/09/14 04:34:04;;;;;;;11.30;2.63;;;13.30;91.00;;;;;;5116508;28;20169;-87
2022/09/14 04:36:30;;;;;;;7.57;2.20;;;13.20;90.80;;;;;;5116476;28;20189;-87
2022/09/14 04:39:00;;;;;;;8.77;2.67;;;13.20;90.60;;;;;;5116943;28;20203;-87
2022/09/14 04:41:27;;;;;;;9.97;3.27;;;13.20;90.30;;;;;;5115249;28;20223;-87
2022/09/14 04:43:54;;;;;;;10.77;2.57;;;13.30;90.10;;;;;;5116605;28;20248;-87
2022/09/14 04:46:22;;;;;;;12.23;2.67;;;13.30;90.00;;;;;;5115285;28;20255;-87
2022/09/14 04:48:49;;;;;;;10.80;3.03;;;13.40;89.80;;;;;;5115489;28;20166;-88
2022/09/14 04:51:21;;;;;;;11.47;2.47;;;13.40;89.70;;;;;;5115145;28;20174;-86
2022/09/14 04:53:49;;;;;;;13.10;3.27;;;13.50;89.80;;;;;;5116367;28;20178;-86
2022/09/14 04:56:16;;;;;;;18.67;3.23;;;13.40;89.90;;;;;;5115087;28;20627;-86
2022/09/14 04:58:44;;;;;;;12.47;3.47;;;13.50;90.00;;;;;;5115141;28;20714;-87
2022/09/14 05:01:12;;;;;;;7.80;3.33;;;13.40;90.00;;;;;;5115771;28;20595;-87
2022/09/14 05:03:38;;;;;;;9.10;2.93;;;13.40;89.90;;;;;;5116625;28;20615;-86
2022/09/14 05:06:06;;;;;;;17.53;3.50;;;13.30;89.90;;;;;;5114636;28;20294;-86
2022/09/14 05:08:34;;;;;;;9.07;3.33;;;13.40;89.90;;;;;;5114580;28;20174;-86
2022/09/14 05:10:59;;;;;;;11.10;3.30;;;13.40;89.90;;;;;;5114639;28;20700;-86
2022/09/14 05:13:25;;;;;;;15.63;3.23;;;13.40;89.80;;;;;;5116052;28;20170;-87
2022/09/14 05:15:51;;;;;;;9.07;2.80;;;13.50;89.80;;;;;;5114373;28;20197;-87
2022/09/14 05:18:17;;;;;;;10.83;3.00;;;13.50;89.70;;;;;;5114380;28;20197;-87
2022/09/14 05:20:43;;;;;;;8.60;2.80;;;13.50;89.70;;;;;;5114410;28;20165;-87
2022/09/14 05:23:09;;;;;;;12.10;3.07;;;13.50;89.60;;;;;;5115447;28;20713;-86
2022/09/14 05:25:34;;;;;;;11.30;3.47;;;13.60;89.60;;;;;;5115411;27;20233;-87
2022/09/14 05:28:00;;;;;;;11.67;3.10;;;13.60;89.50;;;;;;5114876;28;20662;-87
2022/09/14 05:30:25;;;;;;;17.00;3.30;;;13.60;89.50;;;;;;5114352;28;20723;-87
2022/09/14 05:32:51;;;;;;;17.20;3.37;;;13.60;89.60;;;;;;5115636;28;20223;-87
2022/09/14 05:35:17;;;;;;;15.17;3.40;;;13.70;89.40;;;;;;5115716;28;20174;-87
2022/09/14 05:37:42;;;;;;;7.20;2.70;;;13.70;89.10;;;;;;5114734;28;20592;-86
2022/09/14 05:40:08;;;;;;;12.77;2.47;;;13.70;88.80;;;;;;5114111;28;20219;-87
2022/09/14 05:42:34;;;;;;;15.80;3.20;;;13.80;88.60;;;;;;5114088;28;20587;-87
2022/09/14 05:45:00;;;;;;;8.20;2.57;;;13.80;88.40;;;;;;5113903;28;20181;-86
2022/09/14 05:47:29;;;;;;;11.30;3.10;;;13.80;88.20;;;;;;5113728;28;20235;-87
2022/09/14 05:49:55;;;;;;;9.87;2.47;;;13.80;88.30;;;;;;5114188;28;20261;-87
2022/09/14 05:52:20;;;;;;;9.57;3.07;;;13.80;88.30;;;;;;5114905;28;20198;-88
2022/09/14 05:54:46;;;;;;;12.17;3.27;;;13.80;88.20;;;;;;5113284;28;20230;-90
2022/09/14 05:57:11;;;;;;;15.83;3.03;;;13.90;88.10;;;;;;5113418;28;20205;-87
2022/09/14 05:59:37;;;;;;;11.73;2.93;;;13.90;88.20;;;;;;5115741;28;20170;-86
2022/09/14 06:02:03;;;;;;;11.93;3.40;;;14.00;88.60;;;;;;5114930;28;20663;-87
2022/09/14 06:04:28;;;;;;;16.70;3.50;;;13.90;88.70;;;;;;5115129;28;20252;-87
2022/09/14 06:06:54;;;;;;;17.67;4.23;;;14.00;88.90;;;;;;5114344;28;20259;-87
2022/09/14 06:09:19;;;;;;;12.10;3.20;;;14.00;88.90;;;;;;5113184;28;20205;-88
2022/09/14 06:11:45;;;;;;;13.00;3.00;;;14.00;88.90;;;;;;5115370;28;20165;-86
2022/09/14 06:14:11;;;;;;;9.47;2.43;;;14.10;88.70;;;;;;5115677;28;20224;-87
2022/09/14 06:16:36;;;;;;;12.40;2.70;;;14.10;88.20;;;;;;5113661;28;20277;-86
2022/09/14 06:19:02;;;;;;;11.40;2.77;;;14.10;88.00;;;;;;5114300;28;20182;-86
2022/09/14 06:21:31;;;;;;;14.00;2.37;;;14.20;88.00;;;;;;5115462;28;20180;-87
2022/09/14 06:23:57;;;;;;;8.47;2.53;;;14.20;87.90;;;;;;5114838;28;20182;-87
2022/09/14 06:26:24;;;;;;;7.07;2.30;;;14.20;87.80;;;;;;5113484;28;20209;-86
2022/09/14 06:28:49;;;;;;;9.67;2.03;;;14.20;87.70;;;;;;5113687;28;20178;-86
2022/09/14 06:31:16;;;;;;;8.40;3.20;;;14.30;87.60;;;;;;5113511;28;20197;-86
2022/09/14 06:33:44;;;;;;;11.37;2.80;;;14.30;87.60;;;;;;5115588;28;20170;-87
2022/09/14 06:36:12;;;;;;;9.90;2.40;;;14.30;87.60;;;;;;5113355;28;20614;-87
2022/09/14 06:38:39;;;;;;;13.00;2.87;;;14.30;87.30;;;;;;5114449;28;20215;-88
2022/09/14 06:41:07;;;;;;;13.60;2.53;;;14.30;87.30;;;;;;5113554;28;20261;-86
2022/09/14 06:43:35;;;;;;;8.90;2.43;;;14.30;87.40;;;;;;5114997;28;20178;-86
2022/09/14 06:46:08;;;;;;;11.70;2.10;;;14.30;87.70;;;;;;5113019;28;20311;-87
2022/09/14 06:48:37;;;;;;;14.23;3.20;;;14.30;87.60;;;;;;5113853;28;20211;-86
2022/09/14 06:51:19;;;;;;;14.40;3.30;;;14.30;87.70;;;;;;5113199;28;20169;-86
2022/09/14 06:53:46;;;;;;;5.40;2.33;;;14.30;87.80;;;;;;5116385;28;20175;-86
2022/09/14 06:56:12;;;;;;;10.03;3.00;;;14.40;87.90;;;;;;5115113;28;20189;-87
2022/09/14 06:58:38;;;;;;;10.27;2.70;;;14.50;87.90;;;;;;5113055;28;20185;-86
2022/09/14 07:01:05;;;;;;;10.10;2.53;;;14.50;87.90;;;;;;5114086;28;20189;-87
2022/09/14 07:03:33;;;;;;;12.73;2.60;;;14.70;88.20;;;;;;5114530;28;20200;-87
2022/09/14 07:06:07;;;;;;;9.70;2.90;;;14.80;87.80;;;;;;5113365;28;20209;-87
2022/09/14 07:08:35;;;;;;;11.03;2.80;;;14.90;87.70;;;;;;5114770;28;20159;-86
2022/09/14 07:11:02;;;;;;;11.03;2.80;;;15.00;87.20;;;;;;5114443;28;20166;-87
2022/09/14 07:13:28;;;;;;;14.73;2.70;;;15.10;86.90;;;;;;5117221;28;20185;-87
2022/09/14 07:15:54;;;;;;;9.40;2.93;;;15.10;86.40;;;;;;5115224;28;20210;-86
2022/09/14 07:18:27;;;;;;;12.60;2.83;;;15.10;86.00;;;;;;5112905;28;20182;-87
2022/09/14 07:20:53;;;;;;;12.37;2.47;;;15.20;86.10;;;;;;5114719;28;20150;-86
2022/09/14 07:23:19;;;;;;;8.17;2.60;;;15.20;85.40;;;;;;5116143;28;20178;-87
2022/09/14 07:25:44;;;;;;;7.77;2.67;;;15.20;85.40;;;;;;5116687;28;20202;-87
2022/09/14 07:28:10;;;;;;;13.30;2.30;;;15.30;84.80;;;;;;5118191;28;20166;-86
2022/09/14 07:30:37;;;;;;;7.57;2.70;;;15.50;84.20;;;;;;5117055;28;20174;-86
2022/09/14 07:33:04;;;;;;;11.80;2.40;;;15.60;84.40;;;;;;5118391;28;20635;-86
2022/09/14 07:35:30;;;;;;;14.18;2.85;;;15.70;83.80;;;;;;5116582;28;20582;-87
2022/09/14 07:37:56;;;;;;;11.90;4.03;;;15.80;83.80;;;;;;5116853;28;20273;-88
2022/09/14 07:40:22;;;;;;;17.58;6.32;;;16.00;83.40;;;;;;5116365;28;20774;-87
2022/09/14 07:42:54;;;;;;;14.18;6.05;;;15.90;83.00;;;;;;5116231;28;20253;-86
2022/09/14 07:45:20;;;;;;;7.82;2.80;;;15.90;81.90;;;;;;5117392;28;20201;-86
2022/09/14 07:47:46;;;;;;;6.30;1.52;;;15.80;82.00;;;;;;5117788;28;20186;-86
2022/09/14 07:50:12;;;;;;;16.40;3.47;;;15.80;81.70;;;;;;5116196;28;20528;-87
2022/09/14 07:52:38;;;;;;;6.47;1.80;;;15.90;81.70;;;;;;5117292;28;20181;-86
2022/09/14 07:55:05;;;;;;;11.93;2.38;;;15.90;81.00;;;;;;5116195;28;20178;-88
2022/09/14 07:57:30;;;;;;;13.20;2.25;;;16.00;81.70;;;;;;5116022;28;20194;-88
2022/09/14 07:59:57;;;;;;;9.32;2.17;;;16.10;81.80;;;;;;5116021;28;20257;-87
2022/09/14 08:02:23;;;;;;;11.40;2.08;;;16.10;81.20;;;;;;5117804;28;20182;-87
2022/09/14 08:04:51;;;;;;;8.68;2.15;;;16.00;80.40;;;;;;5116117;28;20651;-89
2022/09/14 08:07:16;;;;;;;12.13;2.10;;;16.10;80.40;;;;;;5116139;28;20202;-87
2022/09/14 08:09:42;;;;;;;7.35;2.17;;;16.20;79.80;;;;;;5115459;28;20513;-91
2022/09/14 08:12:07;;;;;;;13.52;2.13;;;16.10;79.40;;;;;;5115652;28;20558;-88
2022/09/14 08:14:33;;;;;;;8.30;1.73;;;16.20;79.60;;;;;;5115921;28;20246;-86
2022/09/14 08:16:59;;;;;;;8.88;1.98;;;16.30;79.80;;;;;;5117673;28;20190;-85
2022/09/14 08:19:25;;;;;;;8.57;2.00;;;16.30;79.00;;;;;;5117943;28;20609;-86
2022/09/14 08:21:51;;;;;;;10.88;2.47;;;16.30;79.00;;;;;;5118056;28;20233;-86
2022/09/14 08:24:19;;;;;;;8.05;1.98;;;16.40;78.40;;;;;;5116052;28;20181;-86
2022/09/14 08:26:46;;;;;;;8.88;1.58;;;16.50;77.80;;;;;;5116484;28;20299;-86
2022/09/14 08:29:13;;;;;;;9.25;2.85;;;16.50;77.30;;;;;;5116745;27;20189;-86
2022/09/14 08:31:39;;;;;;;12.75;2.50;;;16.60;77.80;;;;;;5116916;28;20249;-86
2022/09/14 08:34:06;;;;;;;12.68;2.83;;;16.60;77.00;;;;;;5115663;28;20557;-85
2022/09/14 08:36:34;;;;;;;10.20;2.00;;;16.60;77.30;;;;;;5115340;28;20193;-86
2022/09/14 08:39:00;;;;;;;8.45;2.03;;;16.60;77.00;;;;;;5116612;28;20196;-86
2022/09/14 08:41:36;;;;;;;9.43;2.38;;;16.70;77.30;;;;;;5116266;28;20174;-86
2022/09/14 08:44:15;;;;;;;8.98;2.22;;;16.70;77.30;;;;;;5115266;28;20201;-86
2022/09/14 08:46:49;;;;;;;11.32;2.25;;;16.80;77.50;;;;;;5114733;28;20740;-87
2022/09/14 08:49:27;;;;;;;8.18;2.05;;;17.00;78.00;;;;;;5116088;28;20678;-86
2022/09/14 08:51:54;;;;;;;9.90;1.90;;;17.20;74.70;;;;;;5114759;28;20177;-86
2022/09/14 08:54:19;;;;;;;10.88;1.90;;;17.10;74.50;;;;;;5116140;27;20174;-87
2022/09/14 08:56:53;;;;;;;9.68;1.95;;;17.10;74.10;;;;;;5115458;28;20239;-87
2022/09/14 08:59:37;;;;;;;8.38;1.80;;;17.10;74.20;;;;;;5115185;28;20178;-87
2022/09/14 09:02:21;;;;;;;7.35;1.50;;;17.30;74.70;;;;;;5115138;28;20194;-87
2022/09/14 09:05:17;;;;;;;10.05;1.90;;;17.40;74.50;;;;;;5115072;28;20689;-87
2022/09/14 09:07:55;;;;;;;8.18;1.48;;;17.50;72.60;;;;;;5115934;28;20194;-86
2022/09/14 09:10:23;;;;;;;7.95;1.42;;;17.60;72.90;;;;;;5115016;28;20177;-87
2022/09/14 09:12:58;;;;;;;8.57;1.95;;;17.80;72.50;;;;;;5116038;28;20169;-87
2022/09/14 09:15:32;;;;;;;8.30;1.80;;;17.90;70.20;;;;;;5115825;28;20170;-86
2022/09/14 09:18:12;;;;;;;8.68;2.10;;;17.80;70.00;;;;;;5116271;28;20640;-86
2022/09/14 09:21:00;;;;;;;10.50;2.15;;;17.70;69.20;;;;;;5114420;28;20178;-87
2022/09/14 09:23:28;;;;;;;10.88;1.95;;;17.80;69.80;;;;;;5114399;28;20204;-86
2022/09/14 09:26:20;;;;;;;6.63;1.60;;;17.40;69.40;;;;;;5114212;28;20232;-86
2022/09/14 09:28:53;;;;;;;11.35;1.90;;;17.50;71.10;;;;;;5106999;28;20178;-86
2022/09/14 09:31:26;;;;;;;9.32;1.83;;;17.50;71.10;;;;;;5114168;28;20167;-87
2022/09/14 09:33:52;;;;;;;8.38;1.63;;;17.30;71.50;;;;;;5114313;28;20520;-88
2022/09/14 09:36:18;;;;;;;7.60;1.27;;;17.40;70.90;;;;;;5114103;28;20318;-87
2022/09/14 09:38:44;;;;;;;5.03;1.25;;;17.50;71.90;;;;;;5116138;28;20206;-88
2022/09/14 09:41:25;;;;;;;10.45;1.90;;;17.70;70.10;;;;;;5115478;28;20166;-88
2022/09/14 09:44:08;;;;;;;8.57;1.50;;;17.60;69.60;;;;;;5115094;28;20547;-87
2022/09/14 09:46:58;;;;;;;12.07;1.65;;;17.50;70.50;;;;;;5113241;28;20255;-88
2022/09/14 09:49:35;;;;;;;6.20;1.55;;;17.40;71.10;;;;;;5105749;28;20178;-87
2022/09/14 09:52:10;;;;;;;8.35;1.70;;;17.40;71.10;;;;;;5113750;28;20208;-87
2022/09/14 09:54:38;;;;;;;8.63;1.80;;;17.20;70.60;;;;;;5113817;28;20543;-87
2022/09/14 09:57:18;;;;;;;9.80;2.08;;;17.30;71.80;;;;;;5114705;28;20197;-88
2022/09/14 09:59:45;;;;;;;9.52;2.45;;;17.30;71.70;;;;;;5114934;28;20157;-87
2022/09/14 10:02:25;;;;;;;8.50;1.65;;;17.30;71.10;;;;;;5113284;28;20590;-91
2022/09/14 10:04:59;;;;;;;8.95;1.80;;;17.30;71.60;;;;;;5113438;28;20170;-87
2022/09/14 10:07:26;;;;;;;8.25;2.53;;;17.30;73.10;;;;;;5113202;28;20296;-88
2022/09/14 10:10:00;;;;;;;8.95;3.00;;;17.30;72.40;;;;;;5113424;28;20185;-87
2022/09/14 10:12:26;;;;;;;11.52;2.65;;;17.30;72.70;;;;;;5114622;28;20203;-87
2022/09/14 10:15:12;;;;;;;9.63;1.73;;;17.50;72.70;;;;;;5114686;28;20667;-87
2022/09/14 10:17:38;;;;;;;8.88;2.30;;;17.60;72.70;;;;;;5113018;28;20310;-88
2022/09/14 10:20:05;;;;;;;10.75;1.95;;;17.60;73.20;;;;;;5113149;28;20174;-88
2022/09/14 10:22:33;;;;;;;9.10;1.92;;;17.70;72.80;;;;;;5114418;28;20219;-88
2022/09/14 10:25:01;;;;;;;7.88;1.73;;;18.10;72.40;;;;;;5114551;28;20577;-87
2022/09/14 10:27:56;;;;;;;8.82;1.90;;;18.40;70.40;;;;;;5112826;28;20770;-88
2022/09/14 10:30:56;;;;;;;8.63;2.03;;;18.70;70.80;;;;;;5114543;27;20276;-88
2022/09/14 10:33:22;;;;;;;8.70;1.90;;;18.70;70.60;;;;;;5092624;28;20205;-87
2022/09/14 10:36:20;;;;;;;14.98;2.13;;;18.60;69.60;;;;;;5112890;28;20197;-87
2022/09/14 10:38:51;;;;;;;7.80;1.95;;;18.30;70.00;;;;;;5112985;28;20174;-87
2022/09/14 10:41:33;;;;;;;8.52;2.55;;;18.10;70.90;;;;;;5112944;28;20189;-86
2022/09/14 10:44:35;;;;;;;11.32;2.55;;;18.40;71.20;;;;;;5112805;28;20166;-86
2022/09/14 10:47:22;;;;;;;6.10;1.60;;;18.70;71.00;;;;;;5114577;27;20258;-91
2022/09/14 10:50:05;;;;;;;7.30;2.15;;;18.50;70.70;;;;;;5112858;28;20628;-87
2022/09/14 10:52:36;;;;;;;11.82;1.95;;;18.20;69.80;;;;;;5112839;28;20527;-86
2022/09/14 10:55:30;;;;;;;6.35;1.65;;;18.10;68.40;;;;;;5113115;28;20170;-87
2022/09/14 10:57:59;;;;;;;13.77;2.80;;;18.20;66.90;;;;;;5115393;28;20544;-85
2022/09/14 11:00:29;;;;;;;10.52;2.40;;;18.20;67.40;;;;;;5119030;28;20257;-86
2022/09/14 11:03:22;;;;;;;9.93;2.22;;;18.20;68.00;;;;;;5116690;28;20235;-86
2022/09/14 11:05:58;;;;;;;12.95;3.33;;;18.20;67.30;;;;;;5118040;28;20691;-85
2022/09/14 11:08:39;;;;;;;7.80;2.15;;;18.00;66.60;;;;;;5116911;28;20170;-86
2022/09/14 11:11:16;;;;;;;12.70;2.42;;;18.00;67.30;;;;;;5117987;28;20155;-86
2022/09/14 11:14:01;;;;;;;10.40;1.95;;;18.00;66.90;;;;;;5116615;28;20173;-86
2022/09/14 11:16:50;;;;;;;11.45;2.25;;;18.20;66.60;;;;;;5116952;28;20276;-86
2022/09/14 11:19:51;;;;;;;9.45;1.80;;;18.30;66.60;;;;;;5116739;28;20289;-86
2022/09/14 11:22:42;;;;;;;13.93;2.25;;;18.40;67.00;;;;;;5117972;28;20525;-86
2022/09/14 11:25:22;;;;;;;9.52;2.47;;;18.40;65.60;;;;;;5118194;28;20169;-86
2022/09/14 11:27:56;;;;;;;7.68;1.70;;;18.40;64.80;;;;;;5116507;28;20246;-86
2022/09/14 11:30:29;;;;;;;8.43;2.00;;;18.70;66.50;;;;;;5117563;28;20241;-87
2022/09/14 11:33:06;;;;;;;7.60;1.80;;;18.90;64.30;;;;;;5116355;28;20532;-86
2022/09/14 11:35:45;;;;;;;12.65;2.70;;;18.80;64.20;;;;;;5117623;28;20161;-86
2022/09/14 11:38:17;;;;;;;9.77;2.75;;;18.30;64.80;;;;;;5116277;28;20169;-87
2022/09/14 11:41:02;;;;;;;8.38;2.35;;;18.20;65.50;;;;;;5116080;28;20651;-85
2022/09/14 11:43:36;;;;;;;13.20;2.38;;;18.10;66.90;;;;;;5116372;28;20173;-88
2022/09/14 11:46:12;;;;;;;12.02;2.63;;;18.00;67.90;;;;;;5117250;28;20201;-87
2022/09/14 11:48:47;;;;;;;9.82;2.22;;;18.20;68.10;;;;;;5116196;28;20177;-86
2022/09/14 11:51:40;;;;;;;11.52;2.60;;;18.20;68.40;;;;;;5117553;28;20158;-87
2022/09/14 11:54:20;;;;;;;15.60;1.80;;;18.20;67.60;;;;;;5116026;28;20253;-85
2022/09/14 11:56:54;;;;;;;10.85;2.08;;;18.20;67.60;;;;;;5115776;28;20693;-88
2022/09/14 11:59:38;;;;;;;12.43;2.13;;;18.20;68.60;;;;;;5115969;28;20218;-86
2022/09/14 12:02:22;;;;;;;9.20;2.35;;;18.30;69.10;;;;;;5115963;28;20186;-86
2022/09/14 12:05:06;;;;;;;13.18;2.25;;;18.60;69.50;;;;;;5115976;28;20273;-86
2022/09/14 12:07:59;;;;;;;9.85;2.17;;;18.80;69.00;;;;;;5116575;27;20664;-88
2022/09/14 12:10:25;;;;;;;9.55;2.00;;;18.70;69.00;;;;;;5107567;28;20228;-88
2022/09/14 12:12:57;;;;;;;9.63;1.92;;;18.70;68.60;;;;;;5115857;28;20201;-88
2022/09/14 12:15:26;;;;;;;9.65;1.75;;;18.40;67.60;;;;;;5116476;28;20215;-88
2022/09/14 12:17:53;;;;;;;11.90;2.38;;;18.70;66.40;;;;;;5116528;28;20210;-87
2022/09/14 12:20:37;;;;;;;8.82;2.13;;;19.10;65.40;;;;;;5115327;28;20174;-87
2022/09/14 12:23:28;;;;;;;7.32;2.28;;;19.10;64.30;;;;;;5115358;28;20174;-87
2022/09/14 12:26:09;;;;;;;6.75;2.28;;;18.90;64.30;;;;;;5106535;28;20221;-88
2022/09/14 12:28:37;;;;;;;8.68;2.22;;;18.80;64.80;;;;;;5116410;28;20170;-88
2022/09/14 12:31:03;;;;;;;9.13;2.30;;;19.00;65.10;;;;;;5115092;28;20265;-88
2022/09/14 12:33:31;;;;;;;8.43;2.75;;;19.10;65.10;;;;;;5116220;28;20189;-88
2022/09/14 12:35:57;;;;;;;9.50;2.40;;;19.10;64.60;;;;;;5115433;28;20202;-89
2022/09/14 12:38:29;;;;;;;9.52;2.05;;;19.00;63.90;;;;;;5114836;28;20170;-89
2022/09/14 12:40:58;;;;;;;6.53;2.17;;;19.20;63.20;;;;;;5116222;28;20651;-88
2022/09/14 12:43:33;;;;;;;11.32;3.00;;;18.90;63.40;;;;;;5114905;28;20639;-88
2022/09/14 12:46:03;;;;;;;8.48;1.83;;;18.80;64.40;;;;;;5116319;27;20209;-87
2022/09/14 12:48:47;;;;;;;12.23;2.60;;;19.00;62.80;;;;;;5116308;28;20159;-88
2022/09/14 12:51:38;;;;;;;6.03;2.30;;;19.20;61.90;;;;;;5116542;28;20655;-87
2022/09/14 12:54:09;;;;;;;13.27;2.75;;;18.90;61.90;;;;;;5116300;28;20660;-88
2022/09/14 12:56:53;;;;;;;11.70;2.20;;;19.00;63.70;;;;;;5116072;28;20197;-88
2022/09/14 12:59:31;;;;;;;6.95;2.05;;;19.10;63.30;;;;;;5114550;28;20168;-89
2022/09/14 13:02:14;;;;;;;8.70;2.03;;;19.20;63.10;;;;;;5114374;28;20201;-88
2022/09/14 13:04:44;;;;;;;7.00;1.95;;;19.00;62.60;;;;;;5114439;28;20166;-88